Time;durP1;ratioP1;P1;durP2;ratioP2;P2;SDS_P1;SDS_P2;PMS_P1;PMS_P2;Temp;Humidity;BMP_temperature;BMP_pressure;BME280_temperature;BME280_humidity;BME280_pressure;Samples;Min_cycle;Max_cycle;Signal;HPM_P1;HPM_P2
2023/09/11 00:02:26;;;;;;;6.65;5.50;;;;;;;;;;4997394;28;20330;-35
2023/09/11 00:04:53;;;;;;;6.07;5.38;;;;;;;;;;4992212;28;20212;-33
2023/09/11 00:07:22;;;;;;;5.80;4.90;;;;;;;;;;5000320;28;20211;-39
2023/09/11 00:09:49;;;;;;;6.28;5.45;;;;;;;;;;5002824;28;20230;-40
2023/09/11 00:12:18;;;;;;;5.68;4.45;;;;;;;;;;4998772;28;20211;-37
2023/09/11 00:14:45;;;;;;;6.82;4.57;;;;;;;;;;5005960;28;20234;-40
2023/09/11 00:17:12;;;;;;;5.50;4.72;;;;;;;;;;4995103;28;20209;-38
2023/09/11 00:19:40;;;;;;;6.68;4.88;;;;;;;;;;4995524;28;20228;-36
2023/09/11 00:22:07;;;;;;;5.10;4.60;;;;;;;;;;5006622;28;20211;-37
2023/09/11 00:24:35;;;;;;;5.78;4.88;;;;;;;;;;4993764;28;20207;-41
2023/09/11 00:27:02;;;;;;;5.80;4.80;;;;;;;;;;5004963;28;20213;-34
2023/09/11 00:29:29;;;;;;;5.15;4.43;;;;;;;;;;5014161;28;20227;-36
2023/09/11 00:31:57;;;;;;;5.53;5.03;;;;;;;;;;5005178;28;20219;-36
2023/09/11 00:34:24;;;;;;;5.55;5.03;;;;;;;;;;5003124;28;20212;-35
2023/09/11 00:36:51;;;;;;;7.57;4.68;;;;;;;;;;4998105;28;20235;-40
2023/09/11 00:39:18;;;;;;;7.40;5.10;;;;;;;;;;4995808;28;20542;-32
2023/09/11 00:41:47;;;;;;;5.28;4.78;;;;;;;;;;4999727;28;20222;-34
2023/09/11 00:44:14;;;;;;;7.63;4.78;;;;;;;;;;4993115;28;20494;-44
2023/09/11 00:46:41;;;;;;;6.13;5.53;;;;;;;;;;4995169;28;20206;-36
2023/09/11 00:49:09;;;;;;;5.68;5.13;;;;;;;;;;5001967;28;20238;-40
2023/09/11 00:51:37;;;;;;;7.05;5.18;;;;;;;;;;5003233;28;20207;-34
2023/09/11 00:54:05;;;;;;;5.82;5.20;;;;;;;;;;4995635;28;20211;-41
2023/09/11 00:56:32;;;;;;;5.85;4.68;;;;;;;;;;4998411;28;20302;-39
2023/09/11 00:59:01;;;;;;;6.80;5.77;;;;;;;;;;5006557;28;20233;-36
2023/09/11 01:01:28;;;;;;;6.43;4.83;;;;;;;;;;5001461;28;20215;-40
2023/09/11 01:03:55;;;;;;;7.45;5.50;;;;;;;;;;5004635;28;20207;-42
2023/09/11 01:06:22;;;;;;;6.85;5.32;;;;;;;;;;5005446;28;20204;-34
2023/09/11 01:08:51;;;;;;;5.70;5.10;;;;;;;;;;4994262;28;20206;-35
2023/09/11 01:11:20;;;;;;;5.28;4.78;;;;;;;;;;5001562;28;20211;-37
2023/09/11 01:13:47;;;;;;;7.68;5.22;;;;;;;;;;5001000;28;20227;-36
2023/09/11 01:16:22;;;;;;;7.78;5.40;;;;;;;;;;5001745;28;20208;-39
2023/09/11 01:18:53;;;;;;;7.70;5.47;;;;;;;;;;5007167;28;20224;-37
2023/09/11 01:21:33;;;;;;;7.25;4.85;;;;;;;;;;5004073;28;20243;-37
2023/09/11 01:24:09;;;;;;;5.90;4.75;;;;;;;;;;4995408;28;20215;-38
2023/09/11 01:26:49;;;;;;;8.45;5.45;;;;;;;;;;5005227;28;20206;-38
2023/09/11 01:29:21;;;;;;;5.30;4.80;;;;;;;;;;4992759;28;20278;-37
2023/09/11 01:31:48;;;;;;;5.80;5.20;;;;;;;;;;4997621;28;20223;-38
2023/09/11 01:34:15;;;;;;;6.00;5.13;;;;;;;;;;5001543;28;20211;-34
2023/09/11 01:36:43;;;;;;;6.72;5.63;;;;;;;;;;5001202;28;20242;-37
2023/09/11 01:39:10;;;;;;;7.57;4.85;;;;;;;;;;4999380;28;20233;-39
2023/09/11 01:41:37;;;;;;;5.18;4.72;;;;;;;;;;4996892;28;20207;-41
2023/09/11 01:44:08;;;;;;;5.05;4.55;;;;;;;;;;5000435;28;20214;-40
2023/09/11 01:46:37;;;;;;;6.13;5.10;;;;;;;;;;4999667;28;20207;-41
2023/09/11 01:49:05;;;;;;;7.53;4.93;;;;;;;;;;5006770;28;20233;-34
2023/09/11 01:51:32;;;;;;;5.90;5.30;;;;;;;;;;5000321;28;20212;-38
2023/09/11 01:53:59;;;;;;;6.38;4.50;;;;;;;;;;4994411;28;20223;-40
2023/09/11 01:56:26;;;;;;;6.00;4.73;;;;;;;;;;5007518;28;20214;-40
2023/09/11 01:58:56;;;;;;;5.85;5.25;;;;;;;;;;5010458;28;20226;-37
2023/09/11 02:01:23;;;;;;;5.95;4.97;;;;;;;;;;5005107;28;20207;-37
2023/09/11 02:03:52;;;;;;;5.20;4.60;;;;;;;;;;5007878;28;20227;-39
2023/09/11 02:06:19;;;;;;;6.93;5.10;;;;;;;;;;5014476;28;20222;-34
2023/09/11 02:08:46;;;;;;;6.10;5.03;;;;;;;;;;5004924;28;20209;-35
2023/09/11 02:11:13;;;;;;;5.75;5.13;;;;;;;;;;5006342;28;20210;-35
2023/09/11 02:13:41;;;;;;;5.72;4.45;;;;;;;;;;5003902;28;20225;-38
2023/09/11 02:16:09;;;;;;;8.17;5.80;;;;;;;;;;5005060;28;20211;-34
2023/09/11 02:18:38;;;;;;;5.70;5.07;;;;;;;;;;4997116;28;20204;-32
2023/09/11 02:21:06;;;;;;;5.93;5.37;;;;;;;;;;5007311;28;20211;-36
2023/09/11 02:23:33;;;;;;;5.50;5.00;;;;;;;;;;5011244;28;20213;-35
2023/09/11 02:26:01;;;;;;;5.77;4.73;;;;;;;;;;4999635;28;20216;-38
2023/09/11 02:28:29;;;;;;;6.90;5.00;;;;;;;;;;5000942;28;20212;-36
2023/09/11 02:30:57;;;;;;;6.20;4.20;;;;;;;;;;5003879;28;20224;-36
2023/09/11 02:33:24;;;;;;;5.07;4.57;;;;;;;;;;4998530;28;20204;-38
2023/09/11 02:35:53;;;;;;;6.23;5.20;;;;;;;;;;5006667;28;20279;-38
2023/09/11 02:38:22;;;;;;;5.63;5.03;;;;;;;;;;5009823;28;20211;-34
2023/09/11 02:40:49;;;;;;;6.30;5.70;;;;;;;;;;5005104;28;20227;-37
2023/09/11 02:43:15;;;;;;;4.77;4.37;;;;;;;;;;5009567;28;20294;-39
2023/09/11 02:45:43;;;;;;;6.03;5.07;;;;;;;;;;5009486;28;20215;-39
2023/09/11 02:48:10;;;;;;;7.27;5.20;;;;;;;;;;5003514;28;20203;-37
2023/09/11 02:50:39;;;;;;;7.00;4.70;;;;;;;;;;5012531;28;20225;-35
2023/09/11 02:53:08;;;;;;;7.60;5.40;;;;;;;;;;5003962;28;20222;-38
2023/09/11 02:55:37;;;;;;;5.20;4.70;;;;;;;;;;5004656;28;20211;-41
2023/09/11 02:58:04;;;;;;;5.40;4.90;;;;;;;;;;4998012;28;20210;-38
2023/09/11 03:00:34;;;;;;;5.40;4.90;;;;;;;;;;5015014;28;20243;-35
2023/09/11 03:03:02;;;;;;;5.17;4.67;;;;;;;;;;5004568;28;20534;-38
2023/09/11 03:05:31;;;;;;;5.40;4.87;;;;;;;;;;5012189;28;20207;-39
2023/09/11 03:07:58;;;;;;;5.60;4.70;;;;;;;;;;5000903;28;20266;-41
2023/09/11 03:10:25;;;;;;;6.33;4.97;;;;;;;;;;5006043;28;20315;-40
2023/09/11 03:12:54;;;;;;;5.67;4.70;;;;;;;;;;5003805;28;20211;-35
2023/09/11 03:15:22;;;;;;;5.47;4.77;;;;;;;;;;5003165;28;20218;-37
2023/09/11 03:17:50;;;;;;;6.80;5.73;;;;;;;;;;5002882;28;20282;-35
2023/09/11 03:20:17;;;;;;;5.47;4.97;;;;;;;;;;4997128;28;20227;-41
2023/09/11 03:22:44;;;;;;;5.23;4.73;;;;;;;;;;5003062;28;20207;-35
2023/09/11 03:25:11;;;;;;;5.83;5.23;;;;;;;;;;5007075;28;20203;-39
2023/09/11 03:27:39;;;;;;;6.70;5.37;;;;;;;;;;5006127;28;20210;-41
2023/09/11 03:30:08;;;;;;;5.27;4.77;;;;;;;;;;5010936;28;20448;-35
2023/09/11 03:32:35;;;;;;;5.00;4.60;;;;;;;;;;5015191;28;20207;-33
2023/09/11 03:35:02;;;;;;;6.43;5.67;;;;;;;;;;4998099;28;20210;-36
2023/09/11 03:37:30;;;;;;;6.53;5.80;;;;;;;;;;4996482;28;20211;-40
2023/09/11 03:39:58;;;;;;;4.87;4.43;;;;;;;;;;5002464;28;20234;-39
2023/09/11 03:42:26;;;;;;;6.13;5.53;;;;;;;;;;5000029;28;20206;-33
2023/09/11 03:44:53;;;;;;;7.13;5.80;;;;;;;;;;5007761;28;20243;-39
2023/09/11 03:47:21;;;;;;;5.90;5.40;;;;;;;;;;5012271;28;20206;-32
2023/09/11 03:49:48;;;;;;;6.03;5.43;;;;;;;;;;5000714;28;20314;-32
2023/09/11 03:52:15;;;;;;;6.17;5.47;;;;;;;;;;5007478;28;20207;-40
2023/09/11 03:54:43;;;;;;;5.43;4.93;;;;;;;;;;5000072;28;20219;-38
2023/09/11 03:57:10;;;;;;;6.20;5.60;;;;;;;;;;5001012;28;20218;-40
2023/09/11 03:59:37;;;;;;;5.93;4.97;;;;;;;;;;5000806;28;20222;-33
2023/09/11 04:02:04;;;;;;;9.17;4.93;;;;;;;;;;5008130;28;20294;-38
2023/09/11 04:04:33;;;;;;;5.97;5.07;;;;;;;;;;4996914;28;20213;-36
2023/09/11 04:07:00;;;;;;;6.07;5.47;;;;;;;;;;5002240;28;20215;-38
2023/09/11 04:09:30;;;;;;;5.60;5.00;;;;;;;;;;4993152;28;20231;-37
2023/09/11 04:11:57;;;;;;;6.93;5.57;;;;;;;;;;4995343;28;20295;-33
2023/09/11 04:14:25;;;;;;;10.90;6.00;;;;;;;;;;4996750;28;20297;-39
2023/09/11 04:16:52;;;;;;;5.70;5.20;;;;;;;;;;5013291;28;20213;-35
2023/09/11 04:19:19;;;;;;;7.90;5.37;;;;;;;;;;4996921;28;20241;-33
2023/09/11 04:21:47;;;;;;;7.03;4.67;;;;;;;;;;5000260;28;20212;-43
2023/09/11 04:24:14;;;;;;;5.43;4.93;;;;;;;;;;4998535;28;20214;-40
2023/09/11 04:26:43;;;;;;;5.40;4.90;;;;;;;;;;5006592;28;20244;-39
2023/09/11 04:29:11;;;;;;;9.50;6.13;;;;;;;;;;4991482;28;20230;-40
2023/09/11 04:31:38;;;;;;;7.67;6.03;;;;;;;;;;5001792;28;20238;-34
2023/09/11 04:34:05;;;;;;;6.70;6.10;;;;;;;;;;4997887;28;20290;-38
2023/09/11 04:36:32;;;;;;;6.10;5.50;;;;;;;;;;5010408;28;20206;-37
2023/09/11 04:39:01;;;;;;;6.70;6.07;;;;;;;;;;5005739;28;20230;-41
2023/09/11 04:41:28;;;;;;;6.40;5.73;;;;;;;;;;5006851;28;20237;-38
2023/09/11 04:43:55;;;;;;;6.83;6.10;;;;;;;;;;5006783;28;20203;-32
2023/09/11 04:46:22;;;;;;;6.37;5.57;;;;;;;;;;4995981;28;20215;-38
2023/09/11 04:48:49;;;;;;;6.70;5.87;;;;;;;;;;5002169;28;20224;-33
2023/09/11 04:51:17;;;;;;;5.67;5.00;;;;;;;;;;5004220;28;20296;-32
2023/09/11 04:53:44;;;;;;;5.83;5.33;;;;;;;;;;5003560;28;20217;-38
2023/09/11 04:56:12;;;;;;;6.07;5.47;;;;;;;;;;5000846;28;20200;-40
2023/09/11 04:58:39;;;;;;;5.83;5.23;;;;;;;;;;4993942;28;20214;-35
2023/09/11 05:01:08;;;;;;;5.17;4.67;;;;;;;;;;4993767;28;20219;-40
2023/09/11 05:03:35;;;;;;;5.53;5.03;;;;;;;;;;5000485;28;20210;-31
2023/09/11 05:06:02;;;;;;;5.83;5.27;;;;;;;;;;4996943;28;20213;-32
2023/09/11 05:08:29;;;;;;;5.80;5.20;;;;;;;;;;5002644;28;20205;-40
2023/09/11 05:10:56;;;;;;;6.00;5.50;;;;;;;;;;4994526;28;20314;-36
2023/09/11 05:13:25;;;;;;;7.10;5.50;;;;;;;;;;4998018;28;20305;-31
2023/09/11 05:15:52;;;;;;;6.40;5.80;;;;;;;;;;5005631;28;20203;-38
2023/09/11 05:18:19;;;;;;;8.53;5.33;;;;;;;;;;5001184;28;20293;-32
2023/09/11 05:20:50;;;;;;;6.23;5.47;;;;;;;;;;4996136;28;20215;-41
2023/09/11 05:23:17;;;;;;;5.60;5.10;;;;;;;;;;4995433;28;20257;-35
2023/09/11 05:25:45;;;;;;;6.40;5.60;;;;;;;;;;5004559;28;20203;-34
2023/09/11 05:28:12;;;;;;;5.87;4.70;;;;;;;;;;5002519;28;20214;-41
2023/09/11 05:30:41;;;;;;;5.97;5.47;;;;;;;;;;5009616;28;20229;-36
2023/09/11 05:33:08;;;;;;;8.13;6.10;;;;;;;;;;5000268;28;20214;-38
2023/09/11 05:35:38;;;;;;;7.00;6.10;;;;;;;;;;4997732;28;20211;-37
2023/09/11 05:38:05;;;;;;;9.10;6.90;;;;;;;;;;5002004;28;20206;-39
2023/09/11 05:40:32;;;;;;;7.90;6.43;;;;;;;;;;5001694;28;20221;-35
2023/09/11 05:43:02;;;;;;;7.03;5.43;;;;;;;;;;4995251;28;20216;-36
2023/09/11 05:45:29;;;;;;;5.43;4.93;;;;;;;;;;5003710;28;20203;-32
2023/09/11 05:47:57;;;;;;;7.20;5.90;;;;;;;;;;5000007;28;20206;-34
2023/09/11 05:50:24;;;;;;;8.10;6.53;;;;;;;;;;5003210;28;20228;-36
2023/09/11 05:52:52;;;;;;;5.40;4.90;;;;;;;;;;4999749;28;20242;-43
2023/09/11 05:55:19;;;;;;;8.03;6.47;;;;;;;;;;5000366;28;20214;-39
2023/09/11 05:57:46;;;;;;;7.70;5.70;;;;;;;;;;5000301;28;20211;-38
2023/09/11 06:00:14;;;;;;;6.23;5.63;;;;;;;;;;5001212;28;20230;-35
2023/09/11 06:02:44;;;;;;;6.97;5.77;;;;;;;;;;4999233;28;20568;-38
2023/09/11 06:05:13;;;;;;;10.27;6.30;;;;;;;;;;5001071;28;20308;-37
2023/09/11 06:07:40;;;;;;;6.43;5.87;;;;;;;;;;5001203;28;20214;-32
2023/09/11 06:10:10;;;;;;;7.97;5.10;;;;;;;;;;5004116;28;20229;-38
2023/09/11 06:12:37;;;;;;;6.50;5.80;;;;;;;;;;4999983;28;20310;-32
2023/09/11 06:15:05;;;;;;;6.40;5.70;;;;;;;;;;5003370;28;20215;-33
2023/09/11 06:17:32;;;;;;;6.90;5.77;;;;;;;;;;5008021;28;20209;-34
2023/09/11 06:19:59;;;;;;;8.83;6.37;;;;;;;;;;5001376;28;20244;-37
2023/09/11 06:22:27;;;;;;;6.97;6.37;;;;;;;;;;5005357;28;20206;-35
2023/09/11 06:24:55;;;;;;;7.27;6.57;;;;;;;;;;5004780;28;20213;-35
2023/09/11 06:27:22;;;;;;;7.17;6.47;;;;;;;;;;5011600;28;20203;-34
2023/09/11 06:29:49;;;;;;;7.00;6.30;;;;;;;;;;5002798;28;20227;-35
2023/09/11 06:32:16;;;;;;;7.10;6.37;;;;;;;;;;5002567;28;20211;-43
2023/09/11 06:34:43;;;;;;;8.10;7.00;;;;;;;;;;5007027;28;20290;-39
2023/09/11 06:37:10;;;;;;;9.17;6.07;;;;;;;;;;5002599;28;20289;-38
2023/09/11 06:39:39;;;;;;;6.77;6.17;;;;;;;;;;5000912;28;20219;-36
2023/09/11 06:42:06;;;;;;;7.90;6.80;;;;;;;;;;5001195;28;20233;-41
2023/09/11 06:44:33;;;;;;;8.23;7.43;;;;;;;;;;5001947;28;20207;-31
2023/09/11 06:47:00;;;;;;;6.20;5.60;;;;;;;;;;5001883;28;20286;-38
2023/09/11 06:49:27;;;;;;;8.10;6.80;;;;;;;;;;5000430;28;20223;-42
2023/09/11 06:51:56;;;;;;;9.33;6.90;;;;;;;;;;5003219;28;20205;-38
2023/09/11 06:54:23;;;;;;;7.80;6.97;;;;;;;;;;5004992;28;20222;-41
2023/09/11 06:56:52;;;;;;;8.43;7.07;;;;;;;;;;5006968;28;20207;-38
2023/09/11 06:59:19;;;;;;;7.80;7.00;;;;;;;;;;4997721;28;20337;-35
2023/09/11 07:01:47;;;;;;;8.97;7.80;;;;;;;;;;5000455;28;20226;-37
2023/09/11 07:04:14;;;;;;;9.60;8.00;;;;;;;;;;5001434;28;20211;-34
2023/09/11 07:06:41;;;;;;;8.60;7.73;;;;;;;;;;5003632;28;20202;-40
2023/09/11 07:09:08;;;;;;;9.03;8.17;;;;;;;;;;5003247;28;20227;-39
2023/09/11 07:11:36;;;;;;;9.23;8.23;;;;;;;;;;5002839;28;20195;-41
2023/09/11 07:14:06;;;;;;;9.90;7.93;;;;;;;;;;5001534;28;20254;-36
2023/09/11 07:16:33;;;;;;;9.47;8.07;;;;;;;;;;5011461;28;20214;-37
2023/09/11 07:19:00;;;;;;;8.93;7.80;;;;;;;;;;5010749;28;20223;-37
2023/09/11 07:21:28;;;;;;;10.57;8.43;;;;;;;;;;5001595;28;20223;-33
2023/09/11 07:23:55;;;;;;;9.60;8.63;;;;;;;;;;4995789;28;20204;-34
2023/09/11 07:26:22;;;;;;;11.43;9.30;;;;;;;;;;5004682;28;20215;-39
2023/09/11 07:28:56;;;;;;;9.05;8.15;;;;;;;;;;5000252;28;20234;-40
2023/09/11 07:31:25;;;;;;;10.93;9.03;;;;;;;;;;5000989;28;20279;-35
2023/09/11 07:33:52;;;;;;;9.48;8.20;;;;;;;;;;5004262;28;20207;-41
2023/09/11 07:36:20;;;;;;;10.70;9.60;;;;;;;;;;5005286;28;20207;-36
2023/09/11 07:38:49;;;;;;;8.85;7.97;;;;;;;;;;4997595;28;20210;-30
2023/09/11 07:41:17;;;;;;;11.60;8.45;;;;;;;;;;5007946;28;20250;-39
2023/09/11 07:43:46;;;;;;;9.07;8.18;;;;;;;;;;5002096;28;20211;-40
2023/09/11 07:46:13;;;;;;;10.03;8.53;;;;;;;;;;5002937;28;20261;-41
2023/09/11 07:48:42;;;;;;;11.23;8.13;;;;;;;;;;4995291;28;20297;-39
2023/09/11 07:51:09;;;;;;;9.25;8.35;;;;;;;;;;4999292;28;20212;-37
2023/09/11 07:53:36;;;;;;;9.50;7.87;;;;;;;;;;4997791;28;20223;-40
2023/09/11 07:56:06;;;;;;;9.23;8.32;;;;;;;;;;5002916;28;20210;-39
2023/09/11 07:58:33;;;;;;;12.30;8.95;;;;;;;;;;5001569;28;20218;-33
2023/09/11 08:01:00;;;;;;;9.37;8.43;;;;;;;;;;4997322;28;20224;-36
2023/09/11 08:03:27;;;;;;;11.60;9.18;;;;;;;;;;4998501;28;20239;-37
2023/09/11 08:05:56;;;;;;;10.27;8.40;;;;;;;;;;5004274;28;20207;-38
2023/09/11 08:08:23;;;;;;;8.07;7.27;;;;;;;;;;4998655;28;20204;-41
2023/09/11 08:10:50;;;;;;;9.27;8.35;;;;;;;;;;5004548;28;20223;-39
2023/09/11 08:13:17;;;;;;;15.23;9.65;;;;;;;;;;5003133;28;20208;-39
2023/09/11 08:15:44;;;;;;;10.18;9.10;;;;;;;;;;5009336;28;20206;-35
2023/09/11 08:18:18;;;;;;;10.90;8.73;;;;;;;;;;4997084;28;20204;-32
2023/09/11 08:20:46;;;;;;;9.43;8.00;;;;;;;;;;5004328;28;20238;-37
2023/09/11 08:23:18;;;;;;;10.68;8.18;;;;;;;;;;5003548;28;20204;-37
2023/09/11 08:25:45;;;;;;;9.93;8.80;;;;;;;;;;5006931;28;20199;-32
2023/09/11 08:28:12;;;;;;;9.50;7.63;;;;;;;;;;5008864;28;20215;-36
2023/09/11 08:30:40;;;;;;;14.55;8.52;;;;;;;;;;4997158;28;20223;-39
2023/09/11 08:33:07;;;;;;;8.48;7.50;;;;;;;;;;5003651;28;20302;-40
2023/09/11 08:35:34;;;;;;;10.15;8.15;;;;;;;;;;5005781;28;20217;-42
2023/09/11 08:38:01;;;;;;;9.10;7.82;;;;;;;;;;5006628;28;20199;-36
2023/09/11 08:40:31;;;;;;;9.75;7.85;;;;;;;;;;5003469;28;20223;-36
2023/09/11 08:42:59;;;;;;;12.10;8.27;;;;;;;;;;5007644;28;20203;-34
2023/09/11 08:45:26;;;;;;;13.95;8.32;;;;;;;;;;5003926;28;20214;-37
2023/09/11 08:47:56;;;;;;;10.85;7.93;;;;;;;;;;4997235;28;20210;-43
2023/09/11 08:50:24;;;;;;;9.75;7.82;;;;;;;;;;5001928;28;20222;-40
2023/09/11 08:52:51;;;;;;;8.05;7.38;;;;;;;;;;4999616;28;20261;-43
2023/09/11 08:55:19;;;;;;;8.02;7.13;;;;;;;;;;5004516;28;20213;-40
2023/09/11 08:57:49;;;;;;;10.00;8.15;;;;;;;;;;5005202;28;20211;-35
2023/09/11 09:00:16;;;;;;;8.50;7.65;;;;;;;;;;5004528;28;20235;-41
2023/09/11 09:02:44;;;;;;;11.60;7.97;;;;;;;;;;5001292;28;20225;-35
2023/09/11 09:05:11;;;;;;;8.85;7.30;;;;;;;;;;5000939;28;20212;-38
2023/09/11 09:07:39;;;;;;;8.68;7.78;;;;;;;;;;5001876;28;20216;-39
2023/09/11 09:10:07;;;;;;;9.10;7.28;;;;;;;;;;4998705;28;20238;-38
2023/09/11 09:12:34;;;;;;;11.52;8.27;;;;;;;;;;5000920;28;20209;-40
2023/09/11 09:15:05;;;;;;;8.18;7.38;;;;;;;;;;5007419;28;20207;-40
2023/09/11 09:17:34;;;;;;;8.65;7.80;;;;;;;;;;4999464;28;20207;-40
2023/09/11 09:20:01;;;;;;;8.02;7.15;;;;;;;;;;5007923;28;20226;-42
2023/09/11 09:22:29;;;;;;;9.77;7.45;;;;;;;;;;5003744;28;20226;-36
2023/09/11 09:24:56;;;;;;;8.30;7.10;;;;;;;;;;5000901;28;20204;-36
2023/09/11 09:27:27;;;;;;;8.18;7.28;;;;;;;;;;5000341;28;20212;-40
2023/09/11 09:29:54;;;;;;;8.73;7.35;;;;;;;;;;5003471;28;20236;-39
2023/09/11 09:32:22;;;;;;;6.80;5.95;;;;;;;;;;4999172;28;20208;-30
2023/09/11 09:34:51;;;;;;;8.65;7.13;;;;;;;;;;5005028;28;20379;-39
2023/09/11 09:37:19;;;;;;;8.10;7.32;;;;;;;;;;5001570;28;20211;-35
2023/09/11 09:39:48;;;;;;;8.18;7.38;;;;;;;;;;5001084;28;20231;-29
2023/09/11 09:42:15;;;;;;;9.25;6.68;;;;;;;;;;4999718;28;20692;-40
2023/09/11 09:44:43;;;;;;;7.63;6.65;;;;;;;;;;5001162;28;20212;-40
2023/09/11 09:47:12;;;;;;;7.38;6.35;;;;;;;;;;5005885;28;20211;-42
2023/09/11 09:49:46;;;;;;;9.23;6.57;;;;;;;;;;4993829;28;20262;-39
2023/09/11 09:52:13;;;;;;;9.15;6.95;;;;;;;;;;4999126;28;20207;-37
2023/09/11 09:54:44;;;;;;;7.35;6.65;;;;;;;;;;5006184;28;20290;-42
2023/09/11 09:57:12;;;;;;;8.68;6.55;;;;;;;;;;4992730;28;20209;-35
2023/09/11 09:59:40;;;;;;;10.02;6.20;;;;;;;;;;4999597;28;20230;-40
2023/09/11 10:02:09;;;;;;;8.23;6.53;;;;;;;;;;4993558;28;20236;-40
2023/09/11 10:04:36;;;;;;;7.93;6.40;;;;;;;;;;5325154;23;20240;-29
2023/09/11 10:07:05;;;;;;;7.25;6.45;;;;;;;;;;5009479;28;20244;-31
2023/09/11 10:09:33;;;;;;;7.47;6.00;;;;;;;;;;4994225;28;20597;-33
2023/09/11 10:12:03;;;;;;;8.52;6.63;;;;;;;;;;4997531;28;20205;-33
2023/09/11 10:14:31;;;;;;;6.85;5.75;;;;;;;;;;4994573;28;20296;-30
2023/09/11 10:16:58;;;;;;;7.30;5.38;;;;;;;;;;5005108;28;20224;-32
2023/09/11 10:19:26;;;;;;;5.82;5.15;;;;;;;;;;5009070;28;20229;-31
2023/09/11 10:21:54;;;;;;;6.53;5.05;;;;;;;;;;5006475;28;20225;-33
2023/09/11 10:24:22;;;;;;;6.43;4.60;;;;;;;;;;5006353;28;20210;-34
2023/09/11 10:26:52;;;;;;;6.25;5.32;;;;;;;;;;4998462;28;20203;-31
2023/09/11 10:29:26;;;;;;;9.32;4.43;;;;;;;;;;5002897;28;20272;-33
2023/09/11 10:31:55;;;;;;;7.38;5.80;;;;;;;;;;4996952;28;20206;-30
2023/09/11 10:34:23;;;;;;;6.78;4.45;;;;;;;;;;5002459;28;20219;-31
2023/09/11 10:37:00;;;;;;;7.05;5.38;;;;;;;;;;4996480;28;20207;-33
2023/09/11 10:39:29;;;;;;;5.55;4.68;;;;;;;;;;5004436;28;20231;-31
2023/09/11 10:41:56;;;;;;;8.48;4.60;;;;;;;;;;4996128;28;20241;-31
2023/09/11 10:44:24;;;;;;;4.72;3.83;;;;;;;;;;5006605;28;20211;-31
2023/09/11 10:46:52;;;;;;;5.20;4.10;;;;;;;;;;5000256;28;20204;-31
2023/09/11 10:49:20;;;;;;;8.18;4.70;;;;;;;;;;5006413;28;20232;-32
2023/09/11 10:51:48;;;;;;;8.63;4.82;;;;;;;;;;5008628;28;20209;-31
2023/09/11 10:54:16;;;;;;;7.78;4.68;;;;;;;;;;5010101;28;20577;-30
2023/09/11 10:56:44;;;;;;;10.20;4.60;;;;;;;;;;5000655;28;20233;-32
2023/09/11 10:59:11;;;;;;;5.05;4.30;;;;;;;;;;5003223;28;20233;-32
2023/09/11 11:01:39;;;;;;;5.22;4.20;;;;;;;;;;5012746;28;20231;-31
2023/09/11 11:04:06;;;;;;;7.25;4.47;;;;;;;;;;5004366;28;20240;-30
2023/09/11 11:06:34;;;;;;;7.70;4.78;;;;;;;;;;5012775;28;20215;-33
2023/09/11 11:09:01;;;;;;;7.05;4.30;;;;;;;;;;5001076;28;20233;-33
2023/09/11 11:11:29;;;;;;;5.15;4.18;;;;;;;;;;5005844;28;20298;-31
2023/09/11 11:14:14;;;;;;;6.43;4.78;;;;;;;;;;5001670;28;20680;-29
2023/09/11 11:16:41;;;;;;;8.90;4.57;;;;;;;;;;4994657;28;20208;-32
2023/09/11 11:19:09;;;;;;;9.27;4.80;;;;;;;;;;5002434;28;20234;-30
2023/09/11 11:21:39;;;;;;;7.28;4.85;;;;;;;;;;5004345;28;20222;-30
2023/09/11 11:24:07;;;;;;;8.00;4.65;;;;;;;;;;4999449;28;20216;-32
2023/09/11 11:26:37;;;;;;;5.78;4.55;;;;;;;;;;5003773;28;20249;-33
2023/09/11 11:29:05;;;;;;;6.72;4.95;;;;;;;;;;5007218;28;20241;-31
2023/09/11 11:31:34;;;;;;;8.88;4.90;;;;;;;;;;5010097;28;20225;-29
2023/09/11 11:34:01;;;;;;;8.18;4.78;;;;;;;;;;5011205;28;20286;-28
2023/09/11 11:36:29;;;;;;;5.07;4.57;;;;;;;;;;5002010;28;20298;-32
2023/09/11 11:38:59;;;;;;;6.03;4.88;;;;;;;;;;4995811;28;20226;-33
2023/09/11 11:41:26;;;;;;;7.22;5.13;;;;;;;;;;5003265;28;20209;-30
2023/09/11 11:43:54;;;;;;;6.10;4.85;;;;;;;;;;5008052;28;20213;-31
2023/09/11 11:46:25;;;;;;;6.20;4.88;;;;;;;;;;5002188;28;20214;-30
2023/09/11 11:48:54;;;;;;;7.60;4.82;;;;;;;;;;5003108;28;20849;-29
2023/09/11 11:51:28;;;;;;;9.23;4.65;;;;;;;;;;4999064;28;20216;-30
2023/09/11 11:53:55;;;;;;;10.35;5.10;;;;;;;;;;5000056;28;20207;-30
2023/09/11 11:56:22;;;;;;;7.80;4.88;;;;;;;;;;5000698;28;20211;-31
2023/09/11 11:58:50;;;;;;;9.88;4.53;;;;;;;;;;4998890;28;20293;-32
2023/09/11 12:01:17;;;;;;;7.63;4.05;;;;;;;;;;5008469;28;20211;-29
2023/09/11 12:03:48;;;;;;;8.13;4.55;;;;;;;;;;5008371;28;20672;-32
2023/09/11 12:06:17;;;;;;;8.48;4.50;;;;;;;;;;5010071;28;20216;-29
2023/09/11 12:08:45;;;;;;;9.25;5.00;;;;;;;;;;5000161;28;20272;-31
2023/09/11 12:11:13;;;;;;;9.85;4.50;;;;;;;;;;4996432;28;20213;-32
2023/09/11 12:13:40;;;;;;;9.77;4.35;;;;;;;;;;5010248;28;20206;-32
2023/09/11 12:16:07;;;;;;;6.65;4.55;;;;;;;;;;5000538;28;20214;-32
2023/09/11 12:18:37;;;;;;;4.63;4.13;;;;;;;;;;4997950;28;20208;-32
2023/09/11 12:21:05;;;;;;;10.68;4.28;;;;;;;;;;5003762;28;20290;-30
2023/09/11 12:23:34;;;;;;;9.73;4.70;;;;;;;;;;5003766;28;20224;-31
2023/09/11 12:26:02;;;;;;;8.25;4.13;;;;;;;;;;5004888;28;20241;-30
2023/09/11 12:28:30;;;;;;;7.25;4.95;;;;;;;;;;5000959;28;20214;-31
2023/09/11 12:30:57;;;;;;;9.43;4.95;;;;;;;;;;4997230;28;20233;-30
2023/09/11 12:33:25;;;;;;;8.43;4.72;;;;;;;;;;5002750;28;20344;-33
2023/09/11 12:35:53;;;;;;;8.38;4.60;;;;;;;;;;4996167;28;20295;-30
2023/09/11 12:38:19;;;;;;;7.22;4.63;;;;;;;;;;5001478;28;20207;-31
2023/09/11 12:40:49;;;;;;;11.82;4.68;;;;;;;;;;5000139;28;20224;-32
2023/09/11 12:43:17;;;;;;;7.65;4.40;;;;;;;;;;5002164;28;20238;-32
2023/09/11 12:45:44;;;;;;;6.85;3.95;;;;;;;;;;5005102;28;20222;-32
2023/09/11 12:48:11;;;;;;;7.82;4.07;;;;;;;;;;5008403;28;20196;-29
2023/09/11 12:50:40;;;;;;;6.68;4.43;;;;;;;;;;5001635;28;20223;-31
2023/09/11 12:53:07;;;;;;;7.40;4.47;;;;;;;;;;5000646;28;20210;-32
2023/09/11 12:55:34;;;;;;;8.65;4.22;;;;;;;;;;5000676;28;20291;-31
2023/09/11 12:58:03;;;;;;;9.23;5.10;;;;;;;;;;5002869;28;20267;-28
2023/09/11 13:00:31;;;;;;;9.98;4.38;;;;;;;;;;4996199;28;20219;-32
2023/09/11 13:02:58;;;;;;;7.20;4.00;;;;;;;;;;5001846;28;20361;-32
2023/09/11 13:05:25;;;;;;;7.63;4.72;;;;;;;;;;4998867;28;20225;-29
2023/09/11 13:07:53;;;;;;;7.60;4.43;;;;;;;;;;4995264;28;20235;-30
2023/09/11 13:10:22;;;;;;;10.63;4.15;;;;;;;;;;5002936;28;20231;-30
2023/09/11 13:12:49;;;;;;;4.40;3.72;;;;;;;;;;5003801;28;20208;-33
2023/09/11 13:15:18;;;;;;;8.73;4.50;;;;;;;;;;5002636;28;20200;-30
2023/09/11 13:17:45;;;;;;;9.15;4.30;;;;;;;;;;4992970;28;20231;-31
2023/09/11 13:20:13;;;;;;;12.88;5.47;;;;;;;;;;4994841;28;20231;-33
2023/09/11 13:22:42;;;;;;;9.52;4.80;;;;;;;;;;4992767;28;20234;-31
2023/09/11 13:25:11;;;;;;;9.43;4.22;;;;;;;;;;4994632;28;20207;-28
2023/09/11 13:27:38;;;;;;;10.55;4.18;;;;;;;;;;5007096;28;20222;-33
2023/09/11 13:30:06;;;;;;;7.18;4.55;;;;;;;;;;4998792;28;20310;-32
2023/09/11 13:32:34;;;;;;;8.95;4.35;;;;;;;;;;5001776;28;20211;-30
2023/09/11 13:35:01;;;;;;;8.85;4.25;;;;;;;;;;5000025;28;20214;-29
2023/09/11 13:37:29;;;;;;;6.68;4.07;;;;;;;;;;5001941;28;20212;-30
2023/09/11 13:39:58;;;;;;;7.22;4.13;;;;;;;;;;4994692;28;20243;-30
2023/09/11 13:42:25;;;;;;;8.88;4.07;;;;;;;;;;5000261;28;20218;-34
2023/09/11 13:44:53;;;;;;;5.25;4.15;;;;;;;;;;4993824;28;20207;-31
2023/09/11 13:47:20;;;;;;;9.07;4.32;;;;;;;;;;4997141;28;20206;-31
2023/09/11 13:49:51;;;;;;;5.70;4.10;;;;;;;;;;4994742;28;20306;-33
2023/09/11 13:52:18;;;;;;;7.38;3.90;;;;;;;;;;5006893;28;20302;-33
2023/09/11 13:54:46;;;;;;;7.90;3.95;;;;;;;;;;4998872;28;20207;-33
2023/09/11 13:57:13;;;;;;;4.50;3.97;;;;;;;;;;5002372;28;20677;-33
2023/09/11 13:59:40;;;;;;;6.57;4.10;;;;;;;;;;5005194;28;20229;-32
2023/09/11 14:02:22;;;;;;;4.32;3.63;;;;;;;;;;5011724;28;20238;-33
2023/09/11 14:04:50;;;;;;;10.57;4.25;;;;;;;;;;4998172;28;20298;-31
2023/09/11 14:07:21;;;;;;;5.53;4.03;;;;;;;;;;5005948;28;20298;-31
2023/09/11 14:09:48;;;;;;;7.47;4.25;;;;;;;;;;5005431;28;20267;-30
2023/09/11 14:12:15;;;;;;;8.27;4.63;;;;;;;;;;5010634;28;20207;-33
2023/09/11 14:14:42;;;;;;;7.50;4.95;;;;;;;;;;5006579;28;20207;-33
2023/09/11 14:17:09;;;;;;;6.15;4.32;;;;;;;;;;5006159;28;20195;-30
2023/09/11 14:19:37;;;;;;;8.88;4.20;;;;;;;;;;5009999;28;20234;-32
2023/09/11 14:22:05;;;;;;;9.02;3.63;;;;;;;;;;5002423;28;20597;-32
2023/09/11 14:24:34;;;;;;;6.78;4.53;;;;;;;;;;5005710;28;20250;-31
2023/09/11 14:27:01;;;;;;;9.15;4.70;;;;;;;;;;5009772;28;20212;-33
2023/09/11 14:29:28;;;;;;;8.73;4.35;;;;;;;;;;5004446;28;20270;-32
2023/09/11 14:31:55;;;;;;;8.90;4.60;;;;;;;;;;4999759;28;20658;-33
2023/09/11 14:34:22;;;;;;;4.15;3.75;;;;;;;;;;5004353;28;20566;-30
2023/09/11 14:36:49;;;;;;;5.93;4.80;;;;;;;;;;5015466;28;20298;-30
2023/09/11 14:39:18;;;;;;;4.35;3.85;;;;;;;;;;5007691;28;20237;-33
2023/09/11 14:41:45;;;;;;;14.98;4.80;;;;;;;;;;5001643;28;20200;-31
2023/09/11 14:44:13;;;;;;;5.95;4.35;;;;;;;;;;5005663;28;20219;-31
2023/09/11 14:46:40;;;;;;;5.63;3.97;;;;;;;;;;5001563;28;20214;-33